createdAt,value
2023-05-12T00:02:06.656Z,100517.56
2023-05-12T00:04:36.803Z,100578.72
2023-05-12T00:07:07.761Z,100597.03
2023-05-12T00:09:37.127Z,100603.19
2023-05-12T00:12:06.502Z,100585.09
2023-05-12T00:14:36.941Z,100576.56
2023-05-12T00:17:07.271Z,100590.34
2023-05-12T00:19:37.197Z,100584.38
2023-05-12T00:22:06.268Z,100585.44
2023-05-12T00:24:35.105Z,100610.44
2023-05-12T00:27:04.112Z,100609.66
2023-05-12T00:29:34.165Z,100610.66
2023-05-12T00:32:02.793Z,100605.47
2023-05-12T00:34:31.686Z,100616.81
2023-05-12T00:37:00.666Z,100630.69
2023-05-12T00:39:29.665Z,100621.25
2023-05-12T00:41:59.856Z,100626.13
2023-05-12T00:44:28.723Z,100637.47
2023-05-12T00:46:57.750Z,100647.00
2023-05-12T00:49:28.241Z,100650.38
2023-05-12T00:51:59.342Z,100629.56
2023-05-12T00:54:28.604Z,100664.44
2023-05-12T00:56:58.486Z,100626.91
2023-05-12T00:59:27.879Z,100657.94
2023-05-12T01:01:58.262Z,100585.34
2023-05-12T01:04:27.960Z,100637.69
2023-05-12T01:07:06.061Z,100634.31
2023-05-12T01:09:34.861Z,100645.63
2023-05-12T01:12:03.985Z,100641.16
2023-05-12T01:14:34.945Z,100639.13
2023-05-12T01:17:09.798Z,100654.28
2023-05-12T01:19:47.264Z,100666.41
2023-05-12T01:22:17.409Z,100666.47
2023-05-12T01:24:57.916Z,100666.88
2023-05-12T01:27:29.942Z,100652.88
2023-05-12T01:30:01.901Z,100655.16
2023-05-12T01:32:34.675Z,100665.06
2023-05-12T01:35:04.564Z,100654.47
2023-05-12T01:37:34.722Z,100673.50
2023-05-12T01:40:06.284Z,100671.00
2023-05-12T01:42:35.105Z,100630.03
2023-05-12T01:45:04.043Z,100679.16
2023-05-12T01:47:33.446Z,100674.19
2023-05-12T01:50:08.752Z,100695.97
2023-05-12T01:52:37.941Z,100698.63
2023-05-12T01:55:11.065Z,100695.63
2023-05-12T01:57:46.936Z,100700.16
2023-05-12T02:00:16.361Z,100694.59
2023-05-12T02:02:48.277Z,100692.09
2023-05-12T02:05:18.294Z,100709.19
2023-05-12T02:07:50.194Z,100694.00
2023-05-12T02:10:19.482Z,100714.06
2023-05-12T02:12:48.605Z,100678.00
2023-05-12T02:15:17.634Z,100685.06
2023-05-12T02:17:48.255Z,100698.03
2023-05-12T02:20:18.990Z,100714.03
2023-05-12T02:22:48.159Z,100660.16
2023-05-12T02:25:17.182Z,100693.06
2023-05-12T02:27:46.539Z,100716.72
2023-05-12T02:30:16.531Z,100696.00
2023-05-12T02:32:45.282Z,100707.38
2023-05-12T02:35:14.590Z,100718.94
2023-05-12T02:37:44.024Z,100697.50
2023-05-12T02:40:13.349Z,100726.91
2023-05-12T02:42:44.341Z,100658.34
2023-05-12T02:45:13.780Z,100701.44
2023-05-12T02:47:42.755Z,100725.34
2023-05-12T02:50:11.800Z,100663.81
2023-05-12T02:52:40.606Z,100734.13
2023-05-12T02:55:09.955Z,100721.75
2023-05-12T02:57:38.747Z,100720.13
2023-05-12T03:00:08.731Z,100708.88
2023-05-12T03:02:40.898Z,100725.34
2023-05-12T03:05:10.359Z,100728.59
2023-05-12T03:07:39.264Z,100715.91
2023-05-12T03:10:09.881Z,100744.94
2023-05-12T03:12:38.810Z,100727.75
2023-05-12T03:15:08.609Z,100718.72
2023-05-12T03:17:37.588Z,100744.25
2023-05-12T03:20:07.483Z,100742.00
2023-05-12T03:22:38.079Z,100743.97
2023-05-12T03:25:08.250Z,100747.81
2023-05-12T03:27:37.097Z,100745.06
2023-05-12T03:30:06.514Z,100737.84
2023-05-12T03:32:41.393Z,100751.25
2023-05-12T03:35:12.362Z,100740.47
2023-05-12T03:37:41.507Z,100753.75
2023-05-12T03:40:11.262Z,100735.47
2023-05-12T03:42:40.231Z,100763.88
2023-05-12T03:45:10.994Z,100758.78
2023-05-12T03:47:43.211Z,100739.03
2023-05-12T03:50:12.178Z,100714.09
2023-05-12T03:52:42.188Z,100751.19
2023-05-12T03:55:11.605Z,100743.56
2023-05-12T03:57:40.977Z,100740.13
2023-05-12T04:00:10.932Z,100738.47
2023-05-12T04:02:47.249Z,100705.16
2023-05-12T04:05:17.001Z,100745.91
2023-05-12T04:07:46.500Z,100757.63
2023-05-12T04:10:17.711Z,100746.53
2023-05-12T04:12:47.069Z,100749.56
2023-05-12T04:15:16.540Z,100758.84
2023-05-12T04:17:45.546Z,100755.34
2023-05-12T04:20:14.386Z,100761.06
2023-05-12T04:22:45.006Z,100764.34
2023-05-12T04:25:13.937Z,100739.78
2023-05-12T04:27:42.726Z,100759.59
2023-05-12T04:30:12.337Z,100750.16
2023-05-12T04:32:43.283Z,100758.16
2023-05-12T04:35:12.778Z,100739.72
2023-05-12T04:37:41.702Z,100751.44
2023-05-12T04:40:11.815Z,100768.16
2023-05-12T04:42:40.760Z,100755.59
2023-05-12T04:45:12.345Z,100766.34
2023-05-12T04:47:41.751Z,100750.25
2023-05-12T04:50:11.568Z,100763.91
2023-05-12T04:52:40.606Z,100773.00
2023-05-12T04:55:09.782Z,100755.81
2023-05-12T04:57:38.904Z,100754.47
2023-05-12T05:00:08.704Z,100758.06
2023-05-12T05:02:38.174Z,100755.75
2023-05-12T05:05:07.596Z,100765.47
2023-05-12T05:07:39.770Z,100745.69
2023-05-12T05:10:09.105Z,100756.53
2023-05-12T05:12:38.447Z,100759.94
2023-05-12T05:15:08.181Z,100760.31
2023-05-12T05:17:37.314Z,100768.94
2023-05-12T05:20:11.627Z,100738.00
2023-05-12T05:22:41.675Z,100761.28
2023-05-12T05:25:11.651Z,100746.34
2023-05-12T05:27:41.065Z,100750.53
2023-05-12T05:30:10.119Z,100767.38
2023-05-12T05:32:41.185Z,100761.47
2023-05-12T05:35:11.131Z,100755.66
2023-05-12T05:37:44.688Z,100720.38
2023-05-12T05:40:13.546Z,100757.13
2023-05-12T05:42:42.479Z,100752.16
2023-05-12T05:45:12.676Z,100736.94
2023-05-12T05:47:44.779Z,100740.06
2023-05-12T05:50:13.761Z,100737.63
2023-05-12T05:52:43.788Z,100739.66
2023-05-12T05:55:12.770Z,100747.03
2023-05-12T05:57:43.303Z,100751.25
2023-05-12T06:00:13.276Z,100731.72
2023-05-12T06:02:42.841Z,100736.16
2023-05-12T06:05:16.322Z,100755.41
2023-05-12T06:07:45.093Z,100710.53
2023-05-12T06:10:14.153Z,100751.25
2023-05-12T06:12:43.860Z,100752.84
2023-05-12T06:15:12.986Z,100738.38
2023-05-12T06:17:42.154Z,100740.75
2023-05-12T06:20:14.292Z,100745.28
2023-05-12T06:22:43.365Z,100751.91
2023-05-12T06:25:12.086Z,100743.66
2023-05-12T06:27:41.036Z,100700.94
2023-05-12T06:30:10.565Z,100731.63
2023-05-12T06:32:39.448Z,100736.78
2023-05-12T06:35:08.558Z,100734.91
2023-05-12T06:37:37.358Z,100744.59
2023-05-12T06:40:08.303Z,100748.78
2023-05-12T06:42:37.022Z,100733.94
2023-05-12T06:45:13.379Z,100738.34
2023-05-12T06:47:42.296Z,100723.81
2023-05-12T06:50:11.411Z,100713.22
2023-05-12T06:52:40.225Z,100711.13
2023-05-12T06:55:09.478Z,100706.91
2023-05-12T06:57:38.282Z,100723.34
2023-05-12T07:00:08.465Z,100721.88
2023-05-12T07:02:37.321Z,100714.84
2023-05-12T07:05:06.546Z,100717.38
2023-05-12T07:07:36.648Z,100688.84
2023-05-12T07:10:05.901Z,100737.75
2023-05-12T07:12:34.985Z,100727.84
2023-05-12T07:15:04.237Z,100705.88
2023-05-12T07:17:33.081Z,100715.50
2023-05-12T07:20:04.479Z,100649.63
2023-05-12T07:22:36.010Z,100723.91
2023-05-12T07:25:07.517Z,100706.69
2023-05-12T07:27:36.456Z,100716.13
2023-05-12T07:30:08.245Z,100710.13
2023-05-12T07:32:37.850Z,100689.63
2023-05-12T07:35:07.812Z,100695.38
2023-05-12T07:37:36.787Z,100684.00
2023-05-12T07:40:06.278Z,100655.94
2023-05-12T07:42:35.252Z,100695.44
2023-05-12T07:45:04.091Z,100682.97
2023-05-12T07:47:33.806Z,100678.84
2023-05-12T07:50:02.557Z,100662.34
2023-05-12T07:52:31.299Z,100677.47
2023-05-12T07:55:01.085Z,100678.03
2023-05-12T07:57:31.045Z,100672.94
2023-05-12T07:59:59.802Z,100646.72
2023-05-12T08:02:28.685Z,100656.72
2023-05-12T08:04:57.557Z,100660.78
2023-05-12T08:07:26.482Z,100658.53
2023-05-12T08:09:56.438Z,100660.06
2023-05-12T08:12:25.592Z,100657.06
2023-05-12T08:14:54.458Z,100666.88
2023-05-12T08:17:23.745Z,100666.97
2023-05-12T08:19:52.700Z,100664.06
2023-05-12T08:22:21.597Z,100675.34
2023-05-12T08:24:50.316Z,100671.81
2023-05-12T08:27:19.378Z,100667.47
2023-05-12T08:29:48.511Z,100663.09
2023-05-12T08:32:17.412Z,100672.56
2023-05-12T08:34:46.890Z,100661.53
2023-05-12T08:37:15.759Z,100653.63
2023-05-12T08:39:44.664Z,100663.53
2023-05-12T08:42:43.612Z,100675.09
2023-05-12T08:45:15.256Z,100661.25
2023-05-12T08:47:45.848Z,100664.06
2023-05-12T08:50:18.372Z,100640.03
2023-05-12T08:52:47.211Z,100649.94
2023-05-12T08:55:16.621Z,100675.69
2023-05-12T08:57:48.986Z,100663.13
2023-05-12T09:00:20.473Z,100673.44
2023-05-12T09:02:54.535Z,100677.56
2023-05-12T09:05:24.414Z,100677.75
2023-05-12T09:07:56.154Z,100670.22
2023-05-12T09:10:35.163Z,100674.94
2023-05-12T09:13:14.041Z,100682.63
2023-05-12T09:15:46.792Z,100683.47
2023-05-12T09:18:15.601Z,100685.41
2023-05-12T09:20:44.679Z,100691.28
2023-05-12T09:23:21.134Z,100675.31
2023-05-12T09:26:05.001Z,100673.00
2023-05-12T09:28:40.269Z,100669.06
2023-05-12T09:31:22.422Z,100666.63
2023-05-12T09:33:52.803Z,100664.22
2023-05-12T09:36:25.979Z,100665.09
2023-05-12T09:39:05.319Z,100674.25
2023-05-12T09:41:38.346Z,100664.53
2023-05-12T09:44:09.463Z,100657.09
2023-05-12T09:46:42.705Z,100652.22
2023-05-12T09:49:12.707Z,100662.84
2023-05-12T09:51:42.425Z,100668.16
2023-05-12T09:54:11.311Z,100673.06
2023-05-12T09:56:41.769Z,100658.88
2023-05-12T09:59:12.954Z,100667.03
2023-05-12T10:01:42.503Z,100664.44
2023-05-12T10:04:11.932Z,100660.56
2023-05-12T10:06:43.755Z,100651.81
2023-05-12T10:09:19.070Z,100661.91
2023-05-12T10:11:51.336Z,100650.09
2023-05-12T10:14:23.724Z,100650.91
2023-05-12T10:16:53.921Z,100656.00
2023-05-12T10:19:23.570Z,100653.13
2023-05-12T10:21:52.500Z,100658.84
2023-05-12T10:24:22.734Z,100644.16
2023-05-12T10:26:52.501Z,100649.78
2023-05-12T10:29:21.814Z,100650.66
2023-05-12T10:31:51.124Z,100637.19
2023-05-12T10:34:19.831Z,100650.78
2023-05-12T10:36:51.013Z,100649.59
2023-05-12T10:39:20.260Z,100639.66
2023-05-12T10:41:50.157Z,100643.72
2023-05-12T10:44:28.819Z,100640.00
2023-05-12T10:47:00.852Z,100639.69
2023-05-12T10:49:41.582Z,100629.03
2023-05-12T10:52:14.232Z,100651.38
2023-05-12T10:54:45.341Z,100610.56
2023-05-12T10:57:18.753Z,100638.22
2023-05-12T11:00:02.296Z,100639.34
2023-05-12T11:02:34.931Z,100638.78
2023-05-12T11:05:13.342Z,100658.06
2023-05-12T11:07:50.213Z,100648.41
2023-05-12T11:10:21.116Z,100660.25
2023-05-12T11:12:50.934Z,100616.94
2023-05-12T11:15:20.079Z,100655.16
2023-05-12T11:17:49.086Z,100650.00
2023-05-12T11:20:25.181Z,100640.25
2023-05-12T11:22:54.946Z,100641.75
2023-05-12T11:25:23.912Z,100641.25
2023-05-12T11:27:52.740Z,100604.72
2023-05-12T11:30:22.191Z,100665.88
2023-05-12T11:33:01.833Z,100652.53
2023-05-12T11:35:33.609Z,100667.16
2023-05-12T11:38:03.769Z,100665.53
2023-05-12T11:40:32.621Z,100660.09
2023-05-12T11:43:10.975Z,100653.25
2023-05-12T11:45:39.814Z,100659.56
2023-05-12T11:48:12.684Z,100663.94
2023-05-12T11:50:43.602Z,100605.44
2023-05-12T11:53:15.462Z,100658.06
2023-05-12T11:55:56.603Z,100661.19
2023-05-12T11:58:31.655Z,100649.44
2023-05-12T12:01:13.727Z,100663.34
2023-05-12T12:03:50.665Z,100657.38
2023-05-12T12:06:20.750Z,100658.41
2023-05-12T12:08:54.440Z,100641.00
2023-05-12T12:11:24.486Z,100648.38
2023-05-12T12:13:57.271Z,100609.19
2023-05-12T12:16:30.017Z,100634.19
2023-05-12T12:18:59.341Z,100603.59
2023-05-12T12:21:28.103Z,100632.38
2023-05-12T12:23:59.849Z,100628.00
2023-05-12T12:26:28.552Z,100627.56
2023-05-12T12:28:57.335Z,100625.88
2023-05-12T12:31:26.165Z,100641.94
2023-05-12T12:33:55.008Z,100622.53
2023-05-12T12:36:23.763Z,100620.91
2023-05-12T12:38:52.929Z,100611.84
2023-05-12T12:41:21.728Z,100627.00
2023-05-12T12:43:50.637Z,100613.78
2023-05-12T12:46:19.981Z,100632.13
2023-05-12T12:48:48.925Z,100611.63
2023-05-12T12:51:17.616Z,100620.19
2023-05-12T12:53:46.960Z,100619.19
2023-05-12T12:56:16.365Z,100612.34
2023-05-12T12:58:44.997Z,100614.97
2023-05-12T13:01:13.761Z,100606.41
2023-05-12T13:03:42.852Z,100613.19
2023-05-12T13:06:11.747Z,100624.06
2023-05-12T13:08:41.528Z,100632.13
2023-05-12T13:11:10.439Z,100622.38
2023-05-12T13:13:41.889Z,100639.50
2023-05-12T13:16:10.656Z,100620.47
2023-05-12T13:18:39.623Z,100617.91
2023-05-12T13:21:08.576Z,100614.88
2023-05-12T13:23:37.410Z,100588.22
2023-05-12T13:26:06.170Z,100610.72
2023-05-12T13:28:34.923Z,100618.59
2023-05-12T13:31:03.998Z,100618.59
2023-05-12T13:33:35.225Z,100614.34
2023-05-12T13:36:04.280Z,100611.09
2023-05-12T13:38:34.479Z,100611.41
2023-05-12T13:41:06.111Z,100607.91
2023-05-12T13:43:35.233Z,100614.06
2023-05-12T13:46:03.993Z,100632.34
2023-05-12T13:48:32.807Z,100626.03
2023-05-12T13:51:06.962Z,100619.13
2023-05-12T13:53:39.079Z,100637.66
2023-05-12T13:56:17.577Z,100646.03
2023-05-12T13:58:46.417Z,100649.16
2023-05-12T14:01:15.633Z,100630.59
2023-05-12T14:03:44.578Z,100625.19
2023-05-12T14:06:13.574Z,100626.41
2023-05-12T14:08:42.415Z,100636.00
2023-05-12T14:11:11.532Z,100624.41
2023-05-12T14:13:40.557Z,100624.25
2023-05-12T14:16:09.764Z,100637.47
2023-05-12T14:18:38.622Z,100636.97
2023-05-12T14:21:07.609Z,100639.19
2023-05-12T14:23:37.415Z,100639.47
2023-05-12T14:26:06.299Z,100626.81
2023-05-12T14:28:35.350Z,100626.56
2023-05-12T14:31:04.529Z,100628.03
2023-05-12T14:33:36.989Z,100634.63
2023-05-12T14:36:08.469Z,100621.19
2023-05-12T14:38:37.728Z,100601.16
2023-05-12T14:41:09.017Z,100629.19
2023-05-12T14:43:38.218Z,100615.78
2023-05-12T14:46:09.327Z,100624.13
2023-05-12T14:48:38.598Z,100632.41
2023-05-12T14:51:07.498Z,100623.47
2023-05-12T14:53:36.192Z,100637.00
2023-05-12T14:56:05.234Z,100656.66
2023-05-12T14:58:33.782Z,100643.19
2023-05-12T15:01:03.755Z,100650.44
2023-05-12T15:03:34.397Z,100638.06
2023-05-12T15:06:07.006Z,100647.94
2023-05-12T15:08:36.633Z,100666.81
2023-05-12T15:11:05.789Z,100654.88
2023-05-12T15:13:34.726Z,100665.03
2023-05-12T15:16:05.153Z,100658.53
2023-05-12T15:18:34.392Z,100662.28
2023-05-12T15:21:03.173Z,100672.31
2023-05-12T15:23:32.099Z,100668.56
2023-05-12T15:26:06.935Z,100632.91
2023-05-12T15:28:44.295Z,100673.66
2023-05-12T15:31:13.054Z,100664.53
2023-05-12T15:33:45.004Z,100663.09
2023-05-12T15:36:14.321Z,100665.03
2023-05-12T15:38:43.560Z,100657.44
2023-05-12T15:41:12.404Z,100673.19
2023-05-12T15:43:42.119Z,100681.44
2023-05-12T15:46:12.132Z,100666.34
2023-05-12T15:48:41.072Z,100616.31
2023-05-12T15:51:10.582Z,100683.03
2023-05-12T15:53:39.532Z,100683.03
2023-05-12T15:56:09.650Z,100680.31
2023-05-12T15:58:38.506Z,100659.56
2023-05-12T16:01:07.321Z,100688.25
2023-05-12T16:03:36.268Z,100662.63
2023-05-12T16:06:05.984Z,100668.78
2023-05-12T16:08:35.306Z,100654.56
2023-05-12T16:11:04.087Z,100656.56
2023-05-12T16:13:33.075Z,100673.28
2023-05-12T16:16:02.697Z,100665.00
2023-05-12T16:18:35.680Z,100672.00
2023-05-12T16:21:04.798Z,100651.56
2023-05-12T16:23:34.398Z,100648.22
2023-05-12T16:26:03.362Z,100588.16
2023-05-12T16:28:35.271Z,100652.03
2023-05-12T16:31:05.238Z,100669.69
2023-05-12T16:33:34.316Z,100674.16
2023-05-12T16:36:03.293Z,100657.44
2023-05-12T16:38:33.238Z,100685.28
2023-05-12T16:41:02.497Z,100680.53
2023-05-12T16:43:31.287Z,100588.66
2023-05-12T16:46:04.804Z,100672.31
2023-05-12T16:48:37.055Z,100661.38
2023-05-12T16:51:07.641Z,100685.97
2023-05-12T16:53:37.501Z,100646.44
2023-05-12T16:56:06.959Z,100673.16
2023-05-12T16:58:36.492Z,100668.34
2023-05-12T17:01:06.212Z,100633.22
2023-05-12T17:03:35.608Z,100661.78
2023-05-12T17:06:04.856Z,100609.44
2023-05-12T17:08:36.657Z,100672.66
2023-05-12T17:11:06.217Z,100651.22
2023-05-12T17:13:38.939Z,100625.47
2023-05-12T17:16:08.431Z,100649.69
2023-05-12T17:21:14.954Z,100596.72
2023-05-12T17:23:43.616Z,100660.50
2023-05-12T17:26:12.356Z,100649.56
2023-05-12T17:28:41.105Z,100635.88
2023-05-12T17:31:10.182Z,100667.94
2023-05-12T17:33:39.317Z,100637.97
2023-05-12T17:36:12.738Z,100650.88
2023-05-12T17:38:44.658Z,100647.63
2023-05-12T17:41:14.317Z,100642.69
2023-05-12T17:43:43.431Z,100645.34
2023-05-12T17:46:12.428Z,100633.34
2023-05-12T17:48:42.426Z,100640.31
2023-05-12T17:51:11.825Z,100645.47
2023-05-12T17:53:43.157Z,100650.75
2023-05-12T17:56:12.542Z,100588.00
2023-05-12T17:58:43.360Z,100663.88
2023-05-12T18:01:12.195Z,100642.47
2023-05-12T18:03:41.207Z,100651.19
2023-05-12T18:06:13.349Z,100640.94
2023-05-12T18:08:42.182Z,100661.72
2023-05-12T18:11:11.274Z,100626.47
2023-05-12T18:13:40.934Z,100624.84
2023-05-12T18:16:18.256Z,100635.19
2023-05-12T18:18:57.100Z,100650.00
2023-05-12T18:21:25.993Z,100641.31
2023-05-12T18:23:54.903Z,100625.97
2023-05-12T18:26:26.640Z,100627.78
2023-05-12T18:28:55.528Z,100649.56
2023-05-12T18:31:24.623Z,100572.28
2023-05-12T18:33:55.620Z,100621.44
2023-05-12T18:36:24.648Z,100649.03
2023-05-12T18:38:53.311Z,100640.84
2023-05-12T18:41:22.073Z,100573.78
2023-05-12T18:43:50.913Z,100564.38
2023-05-12T18:46:19.724Z,100651.44
2023-05-12T18:48:49.092Z,100631.06
2023-05-12T18:51:17.933Z,100617.50
2023-05-12T18:53:46.687Z,100652.22
2023-05-12T18:56:17.886Z,100633.28
2023-05-12T18:58:47.314Z,100654.31
2023-05-12T19:01:17.724Z,100607.03
2023-05-12T19:03:46.826Z,100643.31
2023-05-12T19:06:15.704Z,100633.19
2023-05-12T19:08:44.841Z,100648.94
2023-05-12T19:11:14.031Z,100650.00
2023-05-12T19:13:45.971Z,100629.38
2023-05-12T19:16:14.989Z,100599.28
2023-05-12T19:18:44.590Z,100612.53
2023-05-12T19:21:14.174Z,100630.72
2023-05-12T19:23:43.413Z,100629.19
2023-05-12T19:26:12.352Z,100646.03
2023-05-12T19:28:41.136Z,100612.97
2023-05-12T19:31:11.195Z,100613.06
2023-05-12T19:33:39.998Z,100596.84
2023-05-12T19:36:09.034Z,100633.31
2023-05-12T19:38:37.773Z,100593.59
2023-05-12T19:41:06.712Z,100545.47
2023-05-12T19:43:35.416Z,100619.56
2023-05-12T19:46:07.612Z,100618.94
2023-05-12T19:48:36.948Z,100599.06
2023-05-12T19:51:05.841Z,100576.00
2023-05-12T19:53:34.798Z,100543.44
2023-05-12T19:56:03.697Z,100580.31
2023-05-12T19:58:32.493Z,100620.88
2023-05-12T20:01:02.012Z,100600.16
2023-05-12T20:03:31.152Z,100604.50
2023-05-12T20:06:00.175Z,100585.56
2023-05-12T20:08:29.372Z,100619.16
2023-05-12T20:10:58.489Z,100601.88
2023-05-12T20:13:27.785Z,100601.88
2023-05-12T20:15:56.938Z,100583.78
2023-05-12T20:18:28.874Z,100626.13
2023-05-12T20:20:57.832Z,100602.78
2023-05-12T20:23:26.752Z,100611.41
2023-05-12T20:25:55.513Z,100595.13
2023-05-12T20:28:24.908Z,100524.00
2023-05-12T20:30:53.560Z,100604.72
2023-05-12T20:33:22.313Z,100621.22
2023-05-12T20:35:51.042Z,100619.50
2023-05-12T20:38:20.169Z,100626.47
2023-05-12T20:40:49.051Z,100616.13
2023-05-12T20:43:18.152Z,100619.63
2023-05-12T20:45:47.069Z,100599.84
2023-05-12T20:48:15.832Z,100601.59
2023-05-12T20:50:44.635Z,100602.41
2023-05-12T20:53:13.256Z,100619.63
2023-05-12T20:55:43.771Z,100629.34
2023-05-12T20:58:12.608Z,100619.88
2023-05-12T21:00:41.492Z,100597.38
2023-05-12T21:03:17.649Z,100599.97
2023-05-12T21:05:48.978Z,100618.19
2023-05-12T21:08:19.793Z,100602.78
2023-05-12T21:10:49.437Z,100594.31
2023-05-12T21:13:18.451Z,100586.56
2023-05-12T21:15:47.412Z,100604.88
2023-05-12T21:18:16.082Z,100579.13
2023-05-12T21:20:44.950Z,100615.28
2023-05-12T21:23:14.534Z,100532.69
2023-05-12T21:25:43.316Z,100579.31
2023-05-12T21:28:14.334Z,100604.44
2023-05-12T21:30:43.028Z,100612.25
2023-05-12T21:33:12.205Z,100600.28
2023-05-12T21:35:41.901Z,100605.59
2023-05-12T21:38:11.014Z,100617.72
2023-05-12T21:40:40.070Z,100603.97
2023-05-12T21:43:11.140Z,100584.25
2023-05-12T21:45:39.872Z,100521.28
2023-05-12T21:48:09.199Z,100612.00
2023-05-12T21:50:38.285Z,100599.91
2023-05-12T21:53:07.218Z,100599.84
2023-05-12T21:55:38.945Z,100578.25
2023-05-12T21:58:07.635Z,100603.31
2023-05-12T22:00:36.334Z,100570.44
2023-05-12T22:03:05.160Z,100589.44
2023-05-12T22:05:34.136Z,100578.22
2023-05-12T22:08:03.139Z,100573.06
2023-05-12T22:10:32.677Z,100582.56
2023-05-12T22:13:01.668Z,100594.63
2023-05-12T22:15:31.203Z,100520.56
2023-05-12T22:18:00.308Z,100570.56
2023-05-12T22:20:29.335Z,100556.91
2023-05-12T22:22:58.358Z,100568.16
2023-05-12T22:25:27.636Z,100512.97
2023-05-12T22:27:56.358Z,100597.56
2023-05-12T22:30:25.761Z,100606.22
2023-05-12T22:32:55.191Z,100592.41
2023-05-12T22:35:24.739Z,100565.75
2023-05-12T22:37:54.231Z,100567.47
2023-05-12T22:40:23.714Z,100577.06
2023-05-12T22:42:52.590Z,100517.50
2023-05-12T22:45:21.548Z,100602.09
2023-05-12T22:47:50.476Z,100579.63
2023-05-12T22:50:19.743Z,100576.13
2023-05-12T22:52:48.520Z,100594.19
2023-05-12T22:55:17.194Z,100569.88
2023-05-12T22:57:49.220Z,100571.56
2023-05-12T23:00:18.852Z,100593.13
2023-05-12T23:02:47.905Z,100586.22
2023-05-12T23:05:16.856Z,100587.94
2023-05-12T23:07:45.725Z,100596.59
2023-05-12T23:10:15.353Z,100520.63
2023-05-12T23:12:44.106Z,100592.19
2023-05-12T23:15:13.205Z,100567.94
2023-05-12T23:17:42.104Z,100577.28
2023-05-12T23:20:11.260Z,100584.13
2023-05-12T23:22:40.082Z,100583.00
2023-05-12T23:25:09.357Z,100583.50
2023-05-12T23:27:38.510Z,100588.00
2023-05-12T23:30:08.257Z,100597.34
2023-05-12T23:32:37.128Z,100578.38
2023-05-12T23:35:06.553Z,100605.75
2023-05-12T23:37:35.245Z,100605.50
2023-05-12T23:40:04.841Z,100589.34
2023-05-12T23:42:33.664Z,100590.69
2023-05-12T23:45:02.360Z,100575.34
2023-05-12T23:47:31.597Z,100585.13
2023-05-12T23:50:00.290Z,100530.94
2023-05-12T23:52:29.174Z,100586.09
2023-05-12T23:54:58.017Z,100584.09
2023-05-12T23:57:26.647Z,100584.84
2023-05-12T23:59:55.146Z,100583.50
